Time;durP1;ratioP1;P1;durP2;ratioP2;P2;SDS_P1;SDS_P2;PMS_P1;PMS_P2;Temp;Humidity;BMP_temperature;BMP_pressure;BME280_temperature;BME280_humidity;BME280_pressure;Samples;Min_cycle;Max_cycle;Signal;HPM_P1;HPM_P2
2022/04/03 00:01:35;;;;;;;8.87;3.73;;;;;;;;;;5094803;28;20306;-75
2022/04/03 00:04:02;;;;;;;7.00;3.80;;;;;;;;;;5101011;28;20200;-75
2022/04/03 00:06:30;;;;;;;6.80;4.13;;;;;;;;;;5111735;28;20618;-76
2022/04/03 00:08:57;;;;;;;5.63;3.57;;;;;;;;;;5103177;28;20322;-75
2022/04/03 00:11:25;;;;;;;8.13;3.60;;;;;;;;;;5099240;28;20205;-75
2022/04/03 00:13:53;;;;;;;6.53;3.63;;;;;;;;;;5113040;28;20211;-76
2022/04/03 00:16:20;;;;;;;5.27;3.10;;;;;;;;;;5112713;28;20290;-76
2022/04/03 00:18:49;;;;;;;6.70;3.50;;;;;;;;;;5112999;28;20225;-75
2022/04/03 00:21:17;;;;;;;6.57;3.40;;;;;;;;;;5113363;28;20205;-76
2022/04/03 00:23:44;;;;;;;6.53;2.93;;;;;;;;;;5112263;28;20258;-75
2022/04/03 00:26:11;;;;;;;6.10;3.20;;;;;;;;;;5112144;28;20224;-76
2022/04/03 00:28:38;;;;;;;6.73;3.70;;;;;;;;;;5108770;28;20195;-75
2022/04/03 00:31:07;;;;;;;5.77;3.20;;;;;;;;;;5101019;28;20290;-75
2022/04/03 00:33:34;;;;;;;9.63;3.80;;;;;;;;;;5092441;28;20264;-76
2022/04/03 00:36:01;;;;;;;8.83;3.70;;;;;;;;;;5092590;28;20280;-76
2022/04/03 00:38:29;;;;;;;7.80;3.40;;;;;;;;;;5092123;28;20294;-75
2022/04/03 00:40:57;;;;;;;6.30;3.60;;;;;;;;;;5103555;28;20681;-76
2022/04/03 00:43:24;;;;;;;9.03;3.90;;;;;;;;;;5092287;28;20229;-76
2022/04/03 00:45:52;;;;;;;6.90;3.90;;;;;;;;;;5092274;28;20240;-75
2022/04/03 00:48:20;;;;;;;10.50;4.10;;;;;;;;;;5092357;28;20203;-76
2022/04/03 00:50:48;;;;;;;8.23;3.97;;;;;;;;;;5091866;28;20285;-76
2022/04/03 00:53:15;;;;;;;9.60;3.87;;;;;;;;;;5091214;28;20242;-75
2022/04/03 00:55:42;;;;;;;6.13;3.67;;;;;;;;;;5097705;28;20240;-76
2022/04/03 00:58:10;;;;;;;5.17;3.33;;;;;;;;;;5099280;28;20208;-76
2022/04/03 01:00:37;;;;;;;8.63;3.90;;;;;;;;;;5092799;28;20284;-75
2022/04/03 01:03:04;;;;;;;5.70;3.77;;;;;;;;;;5091979;28;20248;-75
2022/04/03 01:05:33;;;;;;;5.13;3.47;;;;;;;;;;5098721;28;20289;-76
2022/04/03 01:08:00;;;;;;;9.07;3.47;;;;;;;;;;5101701;28;20236;-76
2022/04/03 01:10:28;;;;;;;9.43;3.53;;;;;;;;;;5111334;28;20201;-76
2022/04/03 01:12:55;;;;;;;4.93;3.70;;;;;;;;;;5109927;28;20749;-75
2022/04/03 01:15:22;;;;;;;7.33;3.53;;;;;;;;;;5092169;28;20227;-76
2022/04/03 01:17:49;;;;;;;7.47;3.60;;;;;;;;;;5091852;28;20239;-76
2022/04/03 01:20:17;;;;;;;7.27;3.80;;;;;;;;;;5091672;28;20248;-76
2022/04/03 01:22:45;;;;;;;8.87;4.50;;;;;;;;;;5092131;28;20305;-75
2022/04/03 01:25:14;;;;;;;7.93;4.00;;;;;;;;;;5091840;28;20286;-76
2022/04/03 01:27:41;;;;;;;7.17;3.87;;;;;;;;;;5094511;28;20694;-75
2022/04/03 01:30:10;;;;;;;7.30;3.57;;;;;;;;;;5106997;28;20280;-76
2022/04/03 01:32:38;;;;;;;7.77;3.80;;;;;;;;;;5096010;28;20212;-76
2022/04/03 01:35:06;;;;;;;9.90;3.87;;;;;;;;;;5104077;28;20670;-75
2022/04/03 01:37:33;;;;;;;6.60;3.57;;;;;;;;;;5103853;28;20264;-76
2022/04/03 01:40:00;;;;;;;7.27;3.47;;;;;;;;;;5091756;28;20251;-75
2022/04/03 01:42:29;;;;;;;7.80;3.43;;;;;;;;;;5098946;28;20584;-76
2022/04/03 01:44:56;;;;;;;7.30;3.90;;;;;;;;;;5111619;28;20225;-76
2022/04/03 01:47:23;;;;;;;8.47;3.70;;;;;;;;;;5092476;28;20293;-76
2022/04/03 01:49:50;;;;;;;6.30;3.30;;;;;;;;;;5104207;28;20636;-75
2022/04/03 01:52:17;;;;;;;6.93;3.57;;;;;;;;;;5111618;28;20600;-76
2022/04/03 01:54:44;;;;;;;7.23;3.70;;;;;;;;;;5108588;28;20234;-75
2022/04/03 01:57:12;;;;;;;8.47;3.70;;;;;;;;;;5109735;28;20269;-75
2022/04/03 01:59:40;;;;;;;6.83;3.73;;;;;;;;;;5091530;28;20250;-75
2022/04/03 02:02:07;;;;;;;6.23;3.50;;;;;;;;;;5097163;28;20321;-75
2022/04/03 02:04:35;;;;;;;6.30;3.87;;;;;;;;;;5091228;28;20248;-76
2022/04/03 02:07:03;;;;;;;6.23;3.20;;;;;;;;;;5091566;28;20286;-76
2022/04/03 02:09:31;;;;;;;8.87;3.63;;;;;;;;;;5073465;28;20633;-76
2022/04/03 02:11:58;;;;;;;7.17;3.50;;;;;;;;;;5071364;28;20658;-75
2022/04/03 02:14:26;;;;;;;8.23;3.90;;;;;;;;;;5077913;28;20298;-76
2022/04/03 02:16:56;;;;;;;8.57;4.13;;;;;;;;;;5090756;28;20231;-76
2022/04/03 02:19:23;;;;;;;9.43;4.17;;;;;;;;;;5088100;28;20250;-77
2022/04/03 02:21:51;;;;;;;10.17;4.30;;;;;;;;;;5074823;28;20606;-75
2022/04/03 02:24:18;;;;;;;8.93;3.87;;;;;;;;;;5085289;28;20227;-75
2022/04/03 02:26:45;;;;;;;7.63;3.77;;;;;;;;;;5077268;28;20621;-76
2022/04/03 02:29:13;;;;;;;10.50;4.30;;;;;;;;;;5074737;28;20227;-76
2022/04/03 02:31:40;;;;;;;8.33;4.40;;;;;;;;;;5074724;28;20231;-76
2022/04/03 02:34:08;;;;;;;6.13;4.00;;;;;;;;;;5075068;28;20227;-75
2022/04/03 02:36:36;;;;;;;7.60;4.10;;;;;;;;;;5089112;28;21999;-76
2022/04/03 02:39:03;;;;;;;8.33;4.03;;;;;;;;;;5075894;28;20224;-77
2022/04/03 02:41:30;;;;;;;9.00;4.30;;;;;;;;;;5088067;28;20221;-75
2022/04/03 02:43:58;;;;;;;8.30;4.00;;;;;;;;;;5088634;28;20308;-76
2022/04/03 02:46:25;;;;;;;7.23;3.90;;;;;;;;;;5080573;28;20269;-76
2022/04/03 02:48:52;;;;;;;8.83;4.40;;;;;;;;;;5086615;28;20195;-76
2022/04/03 02:51:21;;;;;;;9.23;4.10;;;;;;;;;;5078188;28;20693;-76
2022/04/03 02:53:48;;;;;;;7.57;4.20;;;;;;;;;;5088565;28;20234;-75
2022/04/03 02:56:16;;;;;;;7.23;3.80;;;;;;;;;;5074193;28;20242;-76
2022/04/03 02:58:43;;;;;;;9.23;4.30;;;;;;;;;;5074164;28;20790;-76
2022/04/03 03:01:11;;;;;;;8.03;4.23;;;;;;;;;;5073934;28;20851;-76
2022/04/03 03:03:38;;;;;;;8.60;4.20;;;;;;;;;;5076846;28;20219;-76
2022/04/03 03:06:06;;;;;;;5.70;4.07;;;;;;;;;;5094245;28;20204;-76
2022/04/03 03:08:34;;;;;;;7.13;4.67;;;;;;;;;;5093451;28;20313;-76
2022/04/03 03:11:02;;;;;;;7.57;4.17;;;;;;;;;;5102402;28;20284;-75
2022/04/03 03:13:29;;;;;;;7.50;4.40;;;;;;;;;;5099832;28;20194;-76
2022/04/03 03:15:56;;;;;;;10.00;4.50;;;;;;;;;;5093898;28;20297;-76
2022/04/03 03:18:23;;;;;;;8.13;4.40;;;;;;;;;;5093470;28;20242;-75
2022/04/03 03:20:51;;;;;;;6.13;4.10;;;;;;;;;;5094078;28;20327;-76
2022/04/03 03:23:18;;;;;;;7.67;4.10;;;;;;;;;;5093896;28;20221;-76
2022/04/03 03:25:47;;;;;;;9.20;4.13;;;;;;;;;;5113778;28;20197;-76
2022/04/03 03:28:14;;;;;;;10.57;4.93;;;;;;;;;;5111526;28;20250;-76
2022/04/03 03:30:43;;;;;;;6.23;4.03;;;;;;;;;;5110896;28;20236;-77
2022/04/03 03:33:10;;;;;;;7.20;4.53;;;;;;;;;;5093854;28;20195;-76
2022/04/03 03:35:37;;;;;;;8.77;4.40;;;;;;;;;;5093569;28;20229;-76
2022/04/03 03:38:05;;;;;;;9.43;4.30;;;;;;;;;;5093433;28;20237;-75
2022/04/03 03:40:32;;;;;;;7.73;4.40;;;;;;;;;;5093273;28;20202;-75
2022/04/03 03:43:01;;;;;;;7.40;4.27;;;;;;;;;;5093534;28;20227;-76
2022/04/03 03:45:28;;;;;;;8.93;4.40;;;;;;;;;;5093234;28;20209;-76
2022/04/03 03:47:57;;;;;;;7.70;4.67;;;;;;;;;;5093259;28;20282;-75
2022/04/03 03:50:24;;;;;;;9.40;4.70;;;;;;;;;;5094078;28;20194;-76
2022/04/03 03:52:52;;;;;;;7.03;4.13;;;;;;;;;;5102563;28;20190;-76
2022/04/03 03:55:19;;;;;;;7.53;4.27;;;;;;;;;;5113539;28;20256;-76
2022/04/03 03:57:46;;;;;;;8.13;4.07;;;;;;;;;;5112948;28;20233;-76
2022/04/03 04:00:15;;;;;;;9.20;4.43;;;;;;;;;;5095458;28;20310;-76
2022/04/03 04:02:42;;;;;;;6.87;4.17;;;;;;;;;;5102193;28;20221;-76
2022/04/03 04:05:10;;;;;;;7.03;4.20;;;;;;;;;;5102253;28;20236;-76
2022/04/03 04:07:41;;;;;;;7.90;4.43;;;;;;;;;;5100735;28;20281;-76
2022/04/03 04:10:09;;;;;;;10.30;4.30;;;;;;;;;;5111363;28;20233;-76
2022/04/03 04:12:36;;;;;;;6.50;4.37;;;;;;;;;;5104378;28;20214;-75
2022/04/03 04:15:03;;;;;;;7.60;4.17;;;;;;;;;;5091669;28;20289;-76
2022/04/03 04:17:36;;;;;;;7.67;4.13;;;;;;;;;;5075058;28;20229;-76
2022/04/03 04:20:03;;;;;;;8.17;4.13;;;;;;;;;;5100459;28;20279;-76
2022/04/03 04:22:30;;;;;;;11.07;4.13;;;;;;;;;;5092823;28;20281;-76
2022/04/03 04:24:57;;;;;;;9.50;4.70;;;;;;;;;;5108236;28;20218;-76
2022/04/03 04:27:24;;;;;;;7.33;4.43;;;;;;;;;;5112840;28;20194;-76
2022/04/03 04:29:52;;;;;;;8.60;4.40;;;;;;;;;;5112373;28;20197;-76
2022/04/03 04:32:21;;;;;;;8.10;4.40;;;;;;;;;;5098045;28;20619;-75
2022/04/03 04:34:50;;;;;;;7.37;4.20;;;;;;;;;;5107005;28;20189;-76
2022/04/03 04:37:17;;;;;;;8.30;4.57;;;;;;;;;;5112403;28;20204;-76
2022/04/03 04:39:45;;;;;;;6.43;4.20;;;;;;;;;;5112832;28;20292;-76
2022/04/03 04:42:12;;;;;;;10.53;4.73;;;;;;;;;;5110919;28;20285;-75
2022/04/03 04:44:39;;;;;;;8.23;4.77;;;;;;;;;;5111944;28;20214;-76
2022/04/03 04:47:06;;;;;;;7.13;4.30;;;;;;;;;;5112027;28;20266;-76
2022/04/03 04:49:34;;;;;;;6.90;4.40;;;;;;;;;;5100901;28;20289;-76
2022/04/03 04:52:03;;;;;;;7.97;4.47;;;;;;;;;;5103106;28;20201;-75
2022/04/03 04:54:30;;;;;;;10.93;4.10;;;;;;;;;;5112035;28;20209;-76
2022/04/03 04:56:58;;;;;;;8.40;4.63;;;;;;;;;;5108687;28;20205;-76
2022/04/03 04:59:25;;;;;;;6.80;4.37;;;;;;;;;;5112011;28;20218;-76
2022/04/03 05:01:56;;;;;;;10.30;4.70;;;;;;;;;;5097266;28;20241;-76
2022/04/03 05:04:23;;;;;;;8.30;3.90;;;;;;;;;;5106502;28;20218;-76
2022/04/03 05:06:51;;;;;;;7.67;4.03;;;;;;;;;;5107078;28;20204;-76
2022/04/03 05:09:19;;;;;;;7.40;4.00;;;;;;;;;;5096093;28;20328;-76
2022/04/03 05:11:48;;;;;;;8.30;4.47;;;;;;;;;;5088891;28;20226;-76
2022/04/03 05:14:15;;;;;;;7.43;4.00;;;;;;;;;;5071774;28;20264;-76
2022/04/03 05:16:42;;;;;;;6.83;4.00;;;;;;;;;;5071927;28;20654;-75
2022/04/03 05:19:13;;;;;;;9.53;4.70;;;;;;;;;;5091089;28;20629;-75
2022/04/03 05:21:40;;;;;;;7.03;4.23;;;;;;;;;;5091997;28;20201;-76
2022/04/03 05:24:07;;;;;;;8.80;4.57;;;;;;;;;;5092013;28;20250;-76
2022/04/03 05:26:36;;;;;;;7.17;4.67;;;;;;;;;;5091481;28;20286;-76
2022/04/03 05:29:03;;;;;;;9.53;4.53;;;;;;;;;;5087060;28;20241;-76
2022/04/03 05:31:31;;;;;;;10.63;4.53;;;;;;;;;;5091586;28;20708;-76
2022/04/03 05:33:58;;;;;;;8.60;4.60;;;;;;;;;;5091852;28;20212;-76
2022/04/03 05:36:25;;;;;;;6.93;4.47;;;;;;;;;;5086329;28;20229;-76
2022/04/03 05:38:52;;;;;;;7.43;4.50;;;;;;;;;;5084385;28;20225;-76
2022/04/03 05:41:20;;;;;;;8.47;5.13;;;;;;;;;;5083393;28;20241;-76
2022/04/03 05:43:48;;;;;;;8.53;5.10;;;;;;;;;;5091843;28;20261;-75
2022/04/03 05:46:15;;;;;;;8.57;5.00;;;;;;;;;;5088671;28;20241;-76
2022/04/03 05:48:43;;;;;;;11.53;4.93;;;;;;;;;;5073357;28;20618;-76
2022/04/03 05:51:10;;;;;;;6.80;4.90;;;;;;;;;;5082040;28;20231;-76
2022/04/03 05:53:38;;;;;;;9.47;5.33;;;;;;;;;;5072970;28;20195;-76
2022/04/03 05:56:05;;;;;;;13.27;6.80;;;;;;;;;;5081218;28;20297;-76
2022/04/03 05:58:32;;;;;;;8.43;5.47;;;;;;;;;;5075451;28;20769;-76
2022/04/03 06:01:01;;;;;;;8.63;5.17;;;;;;;;;;5075469;28;20286;-76
2022/04/03 06:03:28;;;;;;;7.77;4.80;;;;;;;;;;5075033;28;20247;-76
2022/04/03 06:05:55;;;;;;;10.33;5.67;;;;;;;;;;5094267;28;20766;-76
2022/04/03 06:08:23;;;;;;;10.77;5.20;;;;;;;;;;5091321;28;20765;-76
2022/04/03 06:10:50;;;;;;;8.87;5.10;;;;;;;;;;5095518;28;20670;-76
2022/04/03 06:13:17;;;;;;;7.50;5.10;;;;;;;;;;5106283;28;20829;-76
2022/04/03 06:15:46;;;;;;;8.77;5.03;;;;;;;;;;5115592;28;20782;-75
2022/04/03 06:18:16;;;;;;;9.07;5.60;;;;;;;;;;5106796;28;20252;-76
2022/04/03 06:20:44;;;;;;;16.17;8.80;;;;;;;;;;5095488;28;20283;-76
2022/04/03 06:23:12;;;;;;;13.90;7.53;;;;;;;;;;5095059;28;20250;-76
2022/04/03 06:25:39;;;;;;;14.53;7.40;;;;;;;;;;5113695;28;20647;-76
2022/04/03 06:28:06;;;;;;;14.67;6.57;;;;;;;;;;5115678;28;20295;-76
2022/04/03 06:30:34;;;;;;;10.27;7.07;;;;;;;;;;5100151;28;20688;-76
2022/04/03 06:33:01;;;;;;;11.17;7.00;;;;;;;;;;5095007;28;20210;-76
2022/04/03 06:35:30;;;;;;;7.73;5.20;;;;;;;;;;5095366;28;20230;-76
2022/04/03 06:37:57;;;;;;;11.80;4.27;;;;;;;;;;5114742;28;20276;-76
2022/04/03 06:40:24;;;;;;;10.07;4.40;;;;;;;;;;5106610;28;20306;-76
2022/04/03 06:42:52;;;;;;;8.13;4.00;;;;;;;;;;5099100;28;20263;-76
2022/04/03 06:45:19;;;;;;;7.27;4.53;;;;;;;;;;5094795;28;20625;-76
2022/04/03 06:47:47;;;;;;;7.87;4.23;;;;;;;;;;5094330;28;20245;-76
2022/04/03 06:50:14;;;;;;;5.40;3.70;;;;;;;;;;5094466;28;20719;-76
2022/04/03 06:52:42;;;;;;;6.00;3.37;;;;;;;;;;5094778;28;20266;-76
2022/04/03 06:55:10;;;;;;;6.10;3.50;;;;;;;;;;5094269;28;20226;-76
2022/04/03 06:57:38;;;;;;;7.00;3.90;;;;;;;;;;5094787;28;20284;-75
2022/04/03 07:00:06;;;;;;;7.07;3.63;;;;;;;;;;5094128;28;20260;-76
2022/04/03 07:02:33;;;;;;;9.13;3.63;;;;;;;;;;5113870;28;20209;-76
2022/04/03 07:05:00;;;;;;;4.60;3.43;;;;;;;;;;5109961;28;20315;-76
2022/04/03 07:07:28;;;;;;;6.13;3.80;;;;;;;;;;5109570;28;20675;-76
2022/04/03 07:09:56;;;;;;;4.77;3.30;;;;;;;;;;5076325;28;20292;-76
2022/04/03 07:12:24;;;;;;;8.03;3.70;;;;;;;;;;5079357;28;20280;-76
2022/04/03 07:14:51;;;;;;;7.80;3.80;;;;;;;;;;5092216;28;20233;-75
2022/04/03 07:17:18;;;;;;;5.77;3.50;;;;;;;;;;5074665;28;20233;-76
2022/04/03 07:19:46;;;;;;;8.23;3.60;;;;;;;;;;5091997;28;20230;-76
2022/04/03 07:22:13;;;;;;;6.17;3.67;;;;;;;;;;5090081;28;20698;-77
2022/04/03 07:24:40;;;;;;;6.00;3.33;;;;;;;;;;5093678;28;20221;-76
2022/04/03 07:27:09;;;;;;;6.77;3.90;;;;;;;;;;5075651;28;20649;-73
2022/04/03 07:29:36;;;;;;;6.47;3.60;;;;;;;;;;5079609;28;20198;-76
2022/04/03 07:32:04;;;;;;;7.87;3.20;;;;;;;;;;5093929;28;20313;-76
2022/04/03 07:34:31;;;;;;;6.43;3.50;;;;;;;;;;5092750;28;20272;-76
2022/04/03 07:36:58;;;;;;;6.70;3.50;;;;;;;;;;5082482;28;20282;-76
2022/04/03 07:39:26;;;;;;;6.03;3.33;;;;;;;;;;5079473;28;20282;-75
2022/04/03 07:41:53;;;;;;;5.40;3.37;;;;;;;;;;5086558;28;20195;-73
2022/04/03 07:44:22;;;;;;;4.83;3.23;;;;;;;;;;5073358;28;20219;-76
2022/04/03 07:46:49;;;;;;;8.90;3.53;;;;;;;;;;5073344;28;20199;-76
2022/04/03 07:49:17;;;;;;;7.37;3.33;;;;;;;;;;5073567;28;20652;-75
2022/04/03 07:51:44;;;;;;;3.43;2.93;;;;;;;;;;5083288;28;20291;-75
2022/04/03 07:54:11;;;;;;;5.27;3.43;;;;;;;;;;5077839;28;20665;-75
2022/04/03 07:56:38;;;;;;;6.33;3.10;;;;;;;;;;5085180;28;20290;-75
2022/04/03 07:59:07;;;;;;;8.53;4.23;;;;;;;;;;5082356;28;20223;-75
2022/04/03 08:01:35;;;;;;;5.73;3.10;;;;;;;;;;5081197;28;20602;-75
2022/04/03 08:04:02;;;;;;;6.33;3.60;;;;;;;;;;5080068;28;20306;-76
2022/04/03 08:06:30;;;;;;;5.10;3.13;;;;;;;;;;5085554;28;20252;-76
2022/04/03 08:08:57;;;;;;;4.53;3.33;;;;;;;;;;5095299;28;20309;-76
2022/04/03 08:11:24;;;;;;;6.20;3.77;;;;;;;;;;5099408;28;20201;-76
2022/04/03 08:13:51;;;;;;;4.13;3.27;;;;;;;;;;5107086;28;20196;-77
2022/04/03 08:16:18;;;;;;;4.40;3.20;;;;;;;;;;5100640;28;20222;-76
2022/04/03 08:18:47;;;;;;;4.50;3.20;;;;;;;;;;5099329;28;20606;-76
2022/04/03 08:21:14;;;;;;;6.87;3.20;;;;;;;;;;5103022;28;20245;-75
2022/04/03 08:26:43;;;;;;;4.47;3.13;;;;;;;;;;5105907;28;20239;-76
2022/04/03 08:29:10;;;;;;;5.33;3.50;;;;;;;;;;5101045;28;20259;-76
2022/04/03 08:31:37;;;;;;;5.30;3.63;;;;;;;;;;5103060;28;20229;-76
2022/04/03 08:34:06;;;;;;;5.03;2.93;;;;;;;;;;5093955;28;20226;-77
2022/04/03 08:36:35;;;;;;;3.53;3.00;;;;;;;;;;5105719;28;20229;-77
2022/04/03 08:39:02;;;;;;;4.60;3.20;;;;;;;;;;5108972;28;20249;-76
2022/04/03 08:41:29;;;;;;;4.03;2.73;;;;;;;;;;5097378;28;20202;-76
2022/04/03 08:43:57;;;;;;;4.97;2.87;;;;;;;;;;5092653;28;20293;-76
2022/04/03 08:46:26;;;;;;;5.20;3.03;;;;;;;;;;5092467;28;20290;-77
2022/04/03 08:48:54;;;;;;;5.13;2.77;;;;;;;;;;5092330;28;20610;-76
2022/04/03 08:51:24;;;;;;;3.77;2.80;;;;;;;;;;5092015;28;20226;-78
2022/04/03 08:53:52;;;;;;;3.93;3.03;;;;;;;;;;5092498;28;20290;-77
2022/04/03 08:56:19;;;;;;;6.07;3.03;;;;;;;;;;5103789;28;20293;-75
2022/04/03 08:58:46;;;;;;;5.27;3.50;;;;;;;;;;5109132;28;20305;-77
2022/04/03 09:01:16;;;;;;;4.33;3.43;;;;;;;;;;5108914;28;20226;-77
2022/04/03 09:03:43;;;;;;;4.50;3.33;;;;;;;;;;5093142;28;20195;-76
2022/04/03 09:06:14;;;;;;;4.17;3.50;;;;;;;;;;5098143;28;20252;-76
2022/04/03 09:08:43;;;;;;;5.40;3.57;;;;;;;;;;5081092;28;20318;-77
2022/04/03 09:11:11;;;;;;;4.80;3.40;;;;;;;;;;5072125;28;20199;-78
2022/04/03 09:13:39;;;;;;;5.33;3.47;;;;;;;;;;5073017;28;20265;-77
2022/04/03 09:16:08;;;;;;;3.90;3.50;;;;;;;;;;5078256;28;20630;-75
2022/04/03 09:18:44;;;;;;;3.73;3.40;;;;;;;;;;5087256;28;20559;-75
2022/04/03 09:21:19;;;;;;;3.97;3.50;;;;;;;;;;5071749;28;20257;-76
2022/04/03 09:24:07;;;;;;;5.33;3.67;;;;;;;;;;5085243;28;20240;-74
2022/04/03 09:26:35;;;;;;;3.93;3.20;;;;;;;;;;5084653;28;20221;-77
2022/04/03 09:29:11;;;;;;;5.17;3.07;;;;;;;;;;5087523;28;20202;-77
2022/04/03 09:31:38;;;;;;;5.40;3.17;;;;;;;;;;5073334;28;20198;-77
2022/04/03 09:34:06;;;;;;;4.40;3.13;;;;;;;;;;5075163;28;20195;-77
2022/04/03 09:36:34;;;;;;;4.30;3.50;;;;;;;;;;5079755;28;20323;-77
2022/04/03 09:39:16;;;;;;;3.97;3.10;;;;;;;;;;5082675;28;20203;-78
2022/04/03 09:41:55;;;;;;;5.37;2.90;;;;;;;;;;5091322;28;20195;-79
2022/04/03 09:44:25;;;;;;;4.73;2.70;;;;;;;;;;5088266;28;20252;-78
2022/04/03 09:47:07;;;;;;;3.67;2.73;;;;;;;;;;5089758;28;20194;-79
2022/04/03 09:49:34;;;;;;;4.53;2.83;;;;;;;;;;5074010;28;20234;-77
2022/04/03 09:52:01;;;;;;;3.93;2.70;;;;;;;;;;5077711;28;20198;-76
2022/04/03 09:54:30;;;;;;;5.33;2.50;;;;;;;;;;5082208;28;20226;-77
2022/04/03 09:57:15;;;;;;;3.23;2.30;;;;;;;;;;5081892;28;20297;-78
2022/04/03 09:59:48;;;;;;;2.73;2.40;;;;;;;;;;5076010;28;20257;-77
2022/04/03 10:02:15;;;;;;;3.67;2.70;;;;;;;;;;5086242;28;20243;-77
2022/04/03 10:04:42;;;;;;;3.83;2.43;;;;;;;;;;5080322;28;20730;-77
2022/04/03 10:07:12;;;;;;;2.60;1.67;;;;;;;;;;5083445;28;20226;-77
2022/04/03 10:09:44;;;;;;;2.80;2.00;;;;;;;;;;5092873;28;20218;-76
2022/04/03 10:12:12;;;;;;;4.43;1.80;;;;;;;;;;5099680;28;20210;-77
2022/04/03 10:14:40;;;;;;;3.00;1.90;;;;;;;;;;5093801;28;20190;-77
2022/04/03 10:17:08;;;;;;;3.10;2.00;;;;;;;;;;5103962;28;20234;-77
2022/04/03 10:19:35;;;;;;;4.50;2.00;;;;;;;;;;5099235;28;20247;-76
2022/04/03 10:22:07;;;;;;;2.60;2.00;;;;;;;;;;5097100;28;20194;-77
2022/04/03 10:24:36;;;;;;;2.70;1.77;;;;;;;;;;5102607;28;20230;-77
2022/04/03 10:27:06;;;;;;;2.07;1.83;;;;;;;;;;5096686;28;20230;-75
2022/04/03 10:29:36;;;;;;;4.10;1.70;;;;;;;;;;5099069;28;20281;-77
2022/04/03 10:32:04;;;;;;;3.83;1.60;;;;;;;;;;5098656;28;20756;-77
2022/04/03 10:34:32;;;;;;;2.87;1.87;;;;;;;;;;5100837;28;20284;-77
2022/04/03 10:36:59;;;;;;;4.93;2.00;;;;;;;;;;5096869;28;20194;-78
2022/04/03 10:39:28;;;;;;;2.10;1.80;;;;;;;;;;5105840;28;20232;-77
2022/04/03 10:42:10;;;;;;;2.40;1.70;;;;;;;;;;5109525;28;20217;-78
2022/04/03 10:44:38;;;;;;;2.53;1.70;;;;;;;;;;5111580;28;20225;-77
2022/04/03 10:47:19;;;;;;;3.20;1.67;;;;;;;;;;5104748;28;20281;-77
2022/04/03 10:49:48;;;;;;;2.90;2.10;;;;;;;;;;5111182;28;20212;-78
2022/04/03 10:52:24;;;;;;;3.50;2.10;;;;;;;;;;5112097;28;20853;-79
2022/04/03 10:54:53;;;;;;;2.50;2.07;;;;;;;;;;5100137;28;20281;-77
2022/04/03 10:57:33;;;;;;;17.63;11.57;;;;;;;;;;5105175;28;20216;-76
2022/04/03 11:00:31;;;;;;;8.60;5.87;;;;;;;;;;5104274;28;20304;-80
2022/04/03 11:03:01;;;;;;;5.20;4.37;;;;;;;;;;5108164;28;20244;-78
2022/04/03 11:05:45;;;;;;;11.00;5.17;;;;;;;;;;5103417;28;20253;-78
2022/04/03 11:08:19;;;;;;;4.33;3.30;;;;;;;;;;5097056;28;20276;-78
2022/04/03 11:10:48;;;;;;;9.50;7.60;;;;;;;;;;5108044;28;20236;-79
2022/04/03 11:13:16;;;;;;;5.40;4.90;;;;;;;;;;5087526;28;20286;-79
2022/04/03 11:15:50;;;;;;;10.10;9.20;;;;;;;;;;5102887;28;20234;-79
2022/04/03 11:18:28;;;;;;;8.90;8.07;;;;;;;;;;5103959;28;20201;-78
2022/04/03 11:21:16;;;;;;;3.23;2.50;;;;;;;;;;5099581;28;20196;-78
2022/04/03 11:23:48;;;;;;;4.13;3.00;;;;;;;;;;5105647;28;20197;-78
2022/04/03 11:26:16;;;;;;;4.03;3.37;;;;;;;;;;5108388;28;20314;-77
2022/04/03 11:28:44;;;;;;;8.87;5.63;;;;;;;;;;5112167;28;20201;-78
2022/04/03 11:31:13;;;;;;;29.23;21.97;;;;;;;;;;5099181;28;20210;-77
2022/04/03 11:33:41;;;;;;;72.37;54.10;;;;;;;;;;5100485;28;20198;-77
2022/04/03 11:36:09;;;;;;;5.67;3.60;;;;;;;;;;5106783;28;20214;-78
2022/04/03 11:38:36;;;;;;;25.70;21.60;;;;;;;;;;5108327;28;20236;-78
2022/04/03 11:41:05;;;;;;;31.67;25.73;;;;;;;;;;5098330;28;20217;-78
2022/04/03 11:43:33;;;;;;;35.03;27.23;;;;;;;;;;5108792;28;20249;-78
2022/04/03 11:46:01;;;;;;;21.43;17.10;;;;;;;;;;5099503;28;20301;-77
2022/04/03 11:48:30;;;;;;;29.20;23.70;;;;;;;;;;5104249;28;20281;-77
2022/04/03 11:51:05;;;;;;;15.53;13.23;;;;;;;;;;5109516;28;20581;-78
2022/04/03 11:53:32;;;;;;;29.83;23.30;;;;;;;;;;5101304;28;20273;-78
2022/04/03 11:56:06;;;;;;;15.93;11.67;;;;;;;;;;5096931;28;20225;-78
2022/04/03 11:58:34;;;;;;;4.87;3.73;;;;;;;;;;5100925;28;20253;-78
2022/04/03 12:01:01;;;;;;;15.17;12.63;;;;;;;;;;5098228;28;20567;-78
2022/04/03 12:03:30;;;;;;;11.53;9.13;;;;;;;;;;5094837;28;20631;-78
2022/04/03 12:06:13;;;;;;;4.67;4.27;;;;;;;;;;5102740;28;20708;-77
2022/04/03 12:08:41;;;;;;;7.47;6.87;;;;;;;;;;5111811;28;20630;-77
2022/04/03 12:11:18;;;;;;;5.70;2.50;;;;;;;;;;5098897;28;20241;-77
2022/04/03 12:13:45;;;;;;;3.37;1.90;;;;;;;;;;5108740;28;20273;-78
2022/04/03 12:16:17;;;;;;;8.77;7.67;;;;;;;;;;5101013;28;20674;-77
2022/04/03 12:18:53;;;;;;;10.90;9.23;;;;;;;;;;5102836;28;20202;-79
2022/04/03 12:21:21;;;;;;;5.13;4.23;;;;;;;;;;5092048;28;20198;-77
2022/04/03 12:24:04;;;;;;;3.07;2.80;;;;;;;;;;5100838;28;20723;-76
2022/04/03 12:26:32;;;;;;;4.27;3.90;;;;;;;;;;5099255;28;20246;-76
2022/04/03 12:28:59;;;;;;;38.13;34.87;;;;;;;;;;5103082;28;20263;-76
2022/04/03 12:31:30;;;;;;;11.00;10.10;;;;;;;;;;5107448;28;20285;-76
2022/04/03 12:34:12;;;;;;;6.93;6.00;;;;;;;;;;5103831;28;20221;-75
2022/04/03 12:36:40;;;;;;;5.70;5.03;;;;;;;;;;5094669;28;20237;-76
2022/04/03 12:39:22;;;;;;;5.77;4.63;;;;;;;;;;5100510;28;20244;-76
2022/04/03 12:41:49;;;;;;;32.60;28.80;;;;;;;;;;5096193;28;20229;-76
2022/04/03 12:44:18;;;;;;;11.53;9.47;;;;;;;;;;5102873;28;20235;-76
2022/04/03 12:46:46;;;;;;;14.47;12.07;;;;;;;;;;5104984;28;20303;-76
2022/04/03 12:49:17;;;;;;;15.87;14.20;;;;;;;;;;5099810;28;20229;-76
2022/04/03 12:51:45;;;;;;;4.77;4.30;;;;;;;;;;5101283;28;20289;-76
2022/04/03 12:54:12;;;;;;;6.73;6.13;;;;;;;;;;5102427;28;20230;-76
2022/04/03 12:59:25;;;;;;;8.33;7.43;;;;;;;;;;5099415;28;20233;-76
2022/04/03 13:01:53;;;;;;;1.97;1.77;;;;;;;;;;5101836;28;20220;-76
2022/04/03 13:04:31;;;;;;;4.30;1.80;;;;;;;;;;5093063;28;20668;-75
2022/04/03 13:06:59;;;;;;;2.70;1.80;;;;;;;;;;5091916;28;20228;-74
2022/04/03 13:09:26;;;;;;;1.93;1.27;;;;;;;;;;5091996;28;20248;-75
2022/04/03 13:11:54;;;;;;;1.77;1.40;;;;;;;;;;5091635;28;20230;-76
2022/04/03 13:14:23;;;;;;;2.87;1.70;;;;;;;;;;5092193;28;20240;-77
2022/04/03 13:16:52;;;;;;;2.10;1.50;;;;;;;;;;5092075;28;20198;-76
2022/04/03 13:19:22;;;;;;;2.10;1.60;;;;;;;;;;5096293;28;20598;-76
2022/04/03 13:21:51;;;;;;;3.83;1.50;;;;;;;;;;5099777;28;20198;-75
2022/04/03 13:24:18;;;;;;;2.27;1.40;;;;;;;;;;5105434;28;20272;-76
2022/04/03 13:26:45;;;;;;;2.30;1.10;;;;;;;;;;5100506;28;20312;-76
2022/04/03 13:29:13;;;;;;;2.90;1.33;;;;;;;;;;5103230;28;20209;-75
2022/04/03 13:31:40;;;;;;;2.20;1.30;;;;;;;;;;5107695;28;20205;-75
2022/04/03 13:34:08;;;;;;;2.33;1.30;;;;;;;;;;5103264;28;20288;-75
2022/04/03 13:36:35;;;;;;;2.57;1.30;;;;;;;;;;5098737;28;20281;-75
2022/04/03 13:39:05;;;;;;;1.87;1.33;;;;;;;;;;5099946;28;20292;-75
2022/04/03 13:41:34;;;;;;;1.83;1.10;;;;;;;;;;5096657;28;20194;-75
2022/04/03 13:44:01;;;;;;;2.77;1.50;;;;;;;;;;5101183;28;20221;-75
2022/04/03 13:46:29;;;;;;;2.43;1.33;;;;;;;;;;5101031;28;20252;-75
2022/04/03 13:48:56;;;;;;;1.43;1.23;;;;;;;;;;5096254;28;20750;-75
2022/04/03 13:51:23;;;;;;;1.37;1.13;;;;;;;;;;5098638;28;20252;-75
2022/04/03 13:53:50;;;;;;;2.30;1.30;;;;;;;;;;5102130;28;20275;-76
2022/04/03 13:56:21;;;;;;;2.53;1.37;;;;;;;;;;5101707;28;20201;-76
2022/04/03 13:58:49;;;;;;;3.47;1.20;;;;;;;;;;5102495;28;20583;-75
2022/04/03 14:01:17;;;;;;;2.60;1.20;;;;;;;;;;5100204;28;20726;-75
2022/04/03 14:03:46;;;;;;;2.03;1.10;;;;;;;;;;5109949;28;20697;-76
2022/04/03 14:06:13;;;;;;;2.27;1.43;;;;;;;;;;5097702;28;20222;-76
2022/04/03 14:08:41;;;;;;;2.07;1.53;;;;;;;;;;5096547;28;20260;-76
2022/04/03 14:11:08;;;;;;;2.20;1.37;;;;;;;;;;5098443;28;20229;-76
2022/04/03 14:13:38;;;;;;;1.70;1.33;;;;;;;;;;5099723;28;20715;-76
2022/04/03 14:16:05;;;;;;;3.60;1.50;;;;;;;;;;5109783;28;20288;-75
2022/04/03 14:18:33;;;;;;;2.80;1.30;;;;;;;;;;5114360;28;20282;-75
2022/04/03 14:21:01;;;;;;;2.00;1.27;;;;;;;;;;5111198;28;20237;-75
2022/04/03 14:23:32;;;;;;;2.50;1.73;;;;;;;;;;5094448;28;20237;-75
2022/04/03 14:26:00;;;;;;;3.13;1.27;;;;;;;;;;5114743;28;20560;-76
2022/04/03 14:28:27;;;;;;;2.00;1.20;;;;;;;;;;5113238;28;20204;-77
2022/04/03 14:30:56;;;;;;;8.90;4.87;;;;;;;;;;5108694;28;20277;-75
2022/04/03 14:33:23;;;;;;;2.37;1.50;;;;;;;;;;5095827;28;20194;-76
2022/04/03 14:35:50;;;;;;;1.80;1.33;;;;;;;;;;5101318;27;20280;-76
2022/04/03 14:38:17;;;;;;;2.03;1.50;;;;;;;;;;5111411;27;20198;-76
2022/04/03 14:40:46;;;;;;;2.00;1.30;;;;;;;;;;5112472;28;20308;-76
2022/04/03 14:43:13;;;;;;;2.50;1.50;;;;;;;;;;5105177;28;20211;-76
2022/04/03 14:45:40;;;;;;;2.23;1.33;;;;;;;;;;5096473;28;20202;-75
2022/04/03 14:48:09;;;;;;;3.23;1.60;;;;;;;;;;5095007;28;20685;-76
2022/04/03 14:50:37;;;;;;;2.67;1.50;;;;;;;;;;5099218;28;20975;-76
2022/04/03 14:53:04;;;;;;;2.37;1.60;;;;;;;;;;5093828;28;20262;-75
2022/04/03 14:55:31;;;;;;;1.70;1.37;;;;;;;;;;5110691;28;20202;-75